sensor_id;sensor_type;location;lat;lon;timestamp;temperature;humidity
78696;SHT31;68030;51.980;5.646;2023-12-20T00:00:17;9.6;71.2
78696;SHT31;68030;51.980;5.646;2023-12-20T00:02:46;9.6;71.3
78696;SHT31;68030;51.980;5.646;2023-12-20T00:05:15;9.6;71.3
78696;SHT31;68030;51.980;5.646;2023-12-20T00:07:44;9.6;71.3
78696;SHT31;68030;51.980;5.646;2023-12-20T00:10:14;9.6;71.3
78696;SHT31;68030;51.980;5.646;2023-12-20T00:12:42;9.6;71.0
78696;SHT31;68030;51.980;5.646;2023-12-20T00:15:11;9.6;70.7
78696;SHT31;68030;51.980;5.646;2023-12-20T00:17:40;9.6;70.5
78696;SHT31;68030;51.980;5.646;2023-12-20T00:20:09;9.6;70.3
78696;SHT31;68030;51.980;5.646;2023-12-20T00:22:38;9.6;70.2
78696;SHT31;68030;51.980;5.646;2023-12-20T00:25:09;9.6;70.1
78696;SHT31;68030;51.980;5.646;2023-12-20T00:27:38;9.5;70.0
78696;SHT31;68030;51.980;5.646;2023-12-20T00:30:07;9.5;69.9
78696;SHT31;68030;51.980;5.646;2023-12-20T00:32:36;9.5;69.8
78696;SHT31;68030;51.980;5.646;2023-12-20T00:35:06;9.5;69.6
78696;SHT31;68030;51.980;5.646;2023-12-20T00:37:34;9.4;69.4
78696;SHT31;68030;51.980;5.646;2023-12-20T00:40:03;9.4;69.2
78696;SHT31;68030;51.980;5.646;2023-12-20T00:42:33;9.4;69.2
78696;SHT31;68030;51.980;5.646;2023-12-20T00:45:02;9.3;69.2
78696;SHT31;68030;51.980;5.646;2023-12-20T00:47:31;9.3;69.3
78696;SHT31;68030;51.980;5.646;2023-12-20T00:49:59;9.3;69.4
78696;SHT31;68030;51.980;5.646;2023-12-20T00:52:28;9.2;69.4
78696;SHT31;68030;51.980;5.646;2023-12-20T00:54:57;9.2;69.5
78696;SHT31;68030;51.980;5.646;2023-12-20T00:57:25;9.2;69.7
78696;SHT31;68030;51.980;5.646;2023-12-20T00:59:54;9.1;69.9
78696;SHT31;68030;51.980;5.646;2023-12-20T01:02:22;9.1;69.9
78696;SHT31;68030;51.980;5.646;2023-12-20T01:04:50;9.1;70.0
78696;SHT31;68030;51.980;5.646;2023-12-20T01:07:19;9.1;70.1
78696;SHT31;68030;51.980;5.646;2023-12-20T01:09:47;9.0;70.0
78696;SHT31;68030;51.980;5.646;2023-12-20T01:12:16;9.0;70.0
78696;SHT31;68030;51.980;5.646;2023-12-20T01:14:46;9.0;70.1
78696;SHT31;68030;51.980;5.646;2023-12-20T01:17:15;9.0;69.9
78696;SHT31;68030;51.980;5.646;2023-12-20T01:19:43;9.0;69.8
78696;SHT31;68030;51.980;5.646;2023-12-20T01:22:11;8.9;69.8
78696;SHT31;68030;51.980;5.646;2023-12-20T01:24:40;8.9;69.7
78696;SHT31;68030;51.980;5.646;2023-12-20T01:27:08;8.9;69.8
78696;SHT31;68030;51.980;5.646;2023-12-20T01:29:37;8.9;69.8
78696;SHT31;68030;51.980;5.646;2023-12-20T01:32:06;8.9;69.8
78696;SHT31;68030;51.980;5.646;2023-12-20T01:34:35;8.8;69.9
78696;SHT31;68030;51.980;5.646;2023-12-20T01:37:04;8.8;70.0
78696;SHT31;68030;51.980;5.646;2023-12-20T01:39:32;8.8;70.0
78696;SHT31;68030;51.980;5.646;2023-12-20T01:42:01;8.8;70.1
78696;SHT31;68030;51.980;5.646;2023-12-20T01:44:30;8.7;70.2
78696;SHT31;68030;51.980;5.646;2023-12-20T01:47:00;8.7;70.4
78696;SHT31;68030;51.980;5.646;2023-12-20T01:49:31;8.7;70.4
78696;SHT31;68030;51.980;5.646;2023-12-20T01:52:00;8.7;70.7
78696;SHT31;68030;51.980;5.646;2023-12-20T01:54:28;8.7;70.8
78696;SHT31;68030;51.980;5.646;2023-12-20T01:56:57;8.7;70.9
78696;SHT31;68030;51.980;5.646;2023-12-20T01:59:26;8.7;71.1
78696;SHT31;68030;51.980;5.646;2023-12-20T02:01:56;8.7;71.2
78696;SHT31;68030;51.980;5.646;2023-12-20T02:04:25;8.7;71.3
78696;SHT31;68030;51.980;5.646;2023-12-20T02:06:56;8.7;71.6
78696;SHT31;68030;51.980;5.646;2023-12-20T02:09:26;8.7;71.7
78696;SHT31;68030;51.980;5.646;2023-12-20T02:11:56;8.7;71.8
78696;SHT31;68030;51.980;5.646;2023-12-20T02:14:24;8.8;71.6
78696;SHT31;68030;51.980;5.646;2023-12-20T02:16:53;8.8;71.4
78696;SHT31;68030;51.980;5.646;2023-12-20T02:19:21;8.8;71.2
78696;SHT31;68030;51.980;5.646;2023-12-20T02:21:50;8.8;71.1
78696;SHT31;68030;51.980;5.646;2023-12-20T02:24:23;8.9;71.1
78696;SHT31;68030;51.980;5.646;2023-12-20T02:26:52;8.9;71.1
78696;SHT31;68030;51.980;5.646;2023-12-20T02:29:22;8.9;71.2
78696;SHT31;68030;51.980;5.646;2023-12-20T02:31:51;9.0;71.0
78696;SHT31;68030;51.980;5.646;2023-12-20T02:34:19;9.0;70.9
78696;SHT31;68030;51.980;5.646;2023-12-20T02:36:48;9.0;70.8
78696;SHT31;68030;51.980;5.646;2023-12-20T02:39:16;9.1;70.6
78696;SHT31;68030;51.980;5.646;2023-12-20T02:41:45;9.1;70.6
78696;SHT31;68030;51.980;5.646;2023-12-20T02:44:13;9.2;70.6
78696;SHT31;68030;51.980;5.646;2023-12-20T02:46:42;9.2;70.5
78696;SHT31;68030;51.980;5.646;2023-12-20T02:49:11;9.2;70.3
78696;SHT31;68030;51.980;5.646;2023-12-20T02:51:39;9.3;70.2
78696;SHT31;68030;51.980;5.646;2023-12-20T02:54:08;9.3;69.9
78696;SHT31;68030;51.980;5.646;2023-12-20T02:56:36;9.3;69.5
78696;SHT31;68030;51.980;5.646;2023-12-20T02:59:05;9.3;69.2
78696;SHT31;68030;51.980;5.646;2023-12-20T03:01:35;9.3;68.9
78696;SHT31;68030;51.980;5.646;2023-12-20T03:04:08;9.3;68.8
78696;SHT31;68030;51.980;5.646;2023-12-20T03:06:37;9.3;68.8
78696;SHT31;68030;51.980;5.646;2023-12-20T03:09:06;9.3;68.8
78696;SHT31;68030;51.980;5.646;2023-12-20T03:11:34;9.3;68.8
78696;SHT31;68030;51.980;5.646;2023-12-20T03:14:03;9.2;69.1
78696;SHT31;68030;51.980;5.646;2023-12-20T03:16:31;9.2;69.3
78696;SHT31;68030;51.980;5.646;2023-12-20T03:19:00;9.2;69.7
78696;SHT31;68030;51.980;5.646;2023-12-20T03:21:28;9.2;70.0
78696;SHT31;68030;51.980;5.646;2023-12-20T03:23:57;9.2;70.1
78696;SHT31;68030;51.980;5.646;2023-12-20T03:26:25;9.2;70.0
78696;SHT31;68030;51.980;5.646;2023-12-20T03:28:53;9.2;69.9
78696;SHT31;68030;51.980;5.646;2023-12-20T03:31:22;9.2;70.0
78696;SHT31;68030;51.980;5.646;2023-12-20T03:33:50;9.2;70.1
78696;SHT31;68030;51.980;5.646;2023-12-20T03:36:20;9.2;70.1
78696;SHT31;68030;51.980;5.646;2023-12-20T03:38:48;9.2;70.0
78696;SHT31;68030;51.980;5.646;2023-12-20T03:41:19;9.2;70.0
78696;SHT31;68030;51.980;5.646;2023-12-20T03:43:47;9.2;69.9
78696;SHT31;68030;51.980;5.646;2023-12-20T03:46:15;9.2;69.9
78696;SHT31;68030;51.980;5.646;2023-12-20T03:48:44;9.3;69.9
78696;SHT31;68030;51.980;5.646;2023-12-20T03:51:12;9.3;69.8
78696;SHT31;68030;51.980;5.646;2023-12-20T03:53:41;9.3;69.8
78696;SHT31;68030;51.980;5.646;2023-12-20T03:56:09;9.3;69.8
78696;SHT31;68030;51.980;5.646;2023-12-20T03:58:38;9.3;69.9
78696;SHT31;68030;51.980;5.646;2023-12-20T04:01:10;9.3;69.9
78696;SHT31;68030;51.980;5.646;2023-12-20T04:03:40;9.3;69.7
78696;SHT31;68030;51.980;5.646;2023-12-20T04:06:08;9.3;69.5
78696;SHT31;68030;51.980;5.646;2023-12-20T04:08:37;9.4;69.4
78696;SHT31;68030;51.980;5.646;2023-12-20T04:11:05;9.4;69.4
78696;SHT31;68030;51.980;5.646;2023-12-20T04:13:33;9.4;69.4
78696;SHT31;68030;51.980;5.646;2023-12-20T04:16:02;9.4;69.4
78696;SHT31;68030;51.980;5.646;2023-12-20T04:18:31;9.4;69.5
78696;SHT31;68030;51.980;5.646;2023-12-20T04:21:00;9.4;69.4
78696;SHT31;68030;51.980;5.646;2023-12-20T04:23:28;9.5;69.3
78696;SHT31;68030;51.980;5.646;2023-12-20T04:25:57;9.5;69.2
78696;SHT31;68030;51.980;5.646;2023-12-20T04:28:25;9.5;69.2
78696;SHT31;68030;51.980;5.646;2023-12-20T04:30:56;9.5;69.3
78696;SHT31;68030;51.980;5.646;2023-12-20T04:33:25;9.5;69.3
78696;SHT31;68030;51.980;5.646;2023-12-20T04:35:53;9.5;69.4
78696;SHT31;68030;51.980;5.646;2023-12-20T04:38:22;9.6;69.4
78696;SHT31;68030;51.980;5.646;2023-12-20T04:40:50;9.6;69.4
78696;SHT31;68030;51.980;5.646;2023-12-20T04:43:19;9.6;69.3
78696;SHT31;68030;51.980;5.646;2023-12-20T04:45:47;9.7;69.2
78696;SHT31;68030;51.980;5.646;2023-12-20T04:48:16;9.7;68.9
78696;SHT31;68030;51.980;5.646;2023-12-20T04:50:44;9.8;68.8
78696;SHT31;68030;51.980;5.646;2023-12-20T04:53:13;9.8;68.7
78696;SHT31;68030;51.980;5.646;2023-12-20T04:55:41;9.8;68.6
78696;SHT31;68030;51.980;5.646;2023-12-20T04:58:10;9.9;68.4
78696;SHT31;68030;51.980;5.646;2023-12-20T05:00:40;9.9;68.2
78696;SHT31;68030;51.980;5.646;2023-12-20T05:03:09;9.9;68.0
78696;SHT31;68030;51.980;5.646;2023-12-20T05:05:38;9.9;67.9
78696;SHT31;68030;51.980;5.646;2023-12-20T05:08:07;9.9;67.7
78696;SHT31;68030;51.980;5.646;2023-12-20T05:10:36;9.9;67.7
78696;SHT31;68030;51.980;5.646;2023-12-20T05:13:06;10.0;67.6
78696;SHT31;68030;51.980;5.646;2023-12-20T05:15:35;10.0;67.6
78696;SHT31;68030;51.980;5.646;2023-12-20T05:18:04;10.0;67.4
78696;SHT31;68030;51.980;5.646;2023-12-20T05:20:33;10.0;67.6
78696;SHT31;68030;51.980;5.646;2023-12-20T05:23:02;10.1;67.4
78696;SHT31;68030;51.980;5.646;2023-12-20T05:25:32;10.1;67.4
78696;SHT31;68030;51.980;5.646;2023-12-20T05:28:03;10.1;67.1
78696;SHT31;68030;51.980;5.646;2023-12-20T05:30:31;10.2;67.2
78696;SHT31;68030;51.980;5.646;2023-12-20T05:33:00;10.2;66.9
78696;SHT31;68030;51.980;5.646;2023-12-20T05:35:29;10.2;66.8
78696;SHT31;68030;51.980;5.646;2023-12-20T05:37:57;10.3;66.7
78696;SHT31;68030;51.980;5.646;2023-12-20T05:40:26;10.3;66.4
78696;SHT31;68030;51.980;5.646;2023-12-20T05:42:54;10.4;66.4
78696;SHT31;68030;51.980;5.646;2023-12-20T05:45:23;10.4;66.3
78696;SHT31;68030;51.980;5.646;2023-12-20T05:47:51;10.4;66.2
78696;SHT31;68030;51.980;5.646;2023-12-20T05:50:20;10.4;66.1
78696;SHT31;68030;51.980;5.646;2023-12-20T05:52:49;10.5;66.0
78696;SHT31;68030;51.980;5.646;2023-12-20T05:55:17;10.5;66.0
78696;SHT31;68030;51.980;5.646;2023-12-20T05:57:46;10.5;65.9
78696;SHT31;68030;51.980;5.646;2023-12-20T06:00:16;10.5;65.8
78696;SHT31;68030;51.980;5.646;2023-12-20T06:02:44;10.6;65.6
78696;SHT31;68030;51.980;5.646;2023-12-20T06:05:13;10.6;65.4
78696;SHT31;68030;51.980;5.646;2023-12-20T06:07:42;10.6;65.3
78696;SHT31;68030;51.980;5.646;2023-12-20T06:10:11;10.6;65.2
78696;SHT31;68030;51.980;5.646;2023-12-20T06:12:40;10.6;65.5
78696;SHT31;68030;51.980;5.646;2023-12-20T06:15:11;10.6;65.3
78696;SHT31;68030;51.980;5.646;2023-12-20T06:17:40;10.6;65.1
78696;SHT31;68030;51.980;5.646;2023-12-20T06:20:09;10.6;65.2
78696;SHT31;68030;51.980;5.646;2023-12-20T06:22:39;10.7;64.9
78696;SHT31;68030;51.980;5.646;2023-12-20T06:25:08;10.7;65.2
78696;SHT31;68030;51.980;5.646;2023-12-20T06:27:37;10.7;64.9
78696;SHT31;68030;51.980;5.646;2023-12-20T06:30:07;10.7;64.7
78696;SHT31;68030;51.980;5.646;2023-12-20T06:32:36;10.7;64.7
78696;SHT31;68030;51.980;5.646;2023-12-20T06:35:06;10.8;64.6
78696;SHT31;68030;51.980;5.646;2023-12-20T06:37:35;10.8;64.3
78696;SHT31;68030;51.980;5.646;2023-12-20T06:40:04;10.8;64.3
78696;SHT31;68030;51.980;5.646;2023-12-20T06:42:33;10.8;64.1
78696;SHT31;68030;51.980;5.646;2023-12-20T06:45:02;10.8;64.2
78696;SHT31;68030;51.980;5.646;2023-12-20T06:47:31;10.7;64.2
78696;SHT31;68030;51.980;5.646;2023-12-20T06:49:59;10.7;64.3
78696;SHT31;68030;51.980;5.646;2023-12-20T06:52:28;10.7;64.5
78696;SHT31;68030;51.980;5.646;2023-12-20T06:54:56;10.7;64.4
78696;SHT31;68030;51.980;5.646;2023-12-20T06:57:25;10.7;64.5
78696;SHT31;68030;51.980;5.646;2023-12-20T06:59:53;10.7;64.5
78696;SHT31;68030;51.980;5.646;2023-12-20T07:02:22;10.7;64.7
78696;SHT31;68030;51.980;5.646;2023-12-20T07:04:50;10.7;64.6
78696;SHT31;68030;51.980;5.646;2023-12-20T07:07:18;10.7;64.8
78696;SHT31;68030;51.980;5.646;2023-12-20T07:09:47;10.6;65.0
78696;SHT31;68030;51.980;5.646;2023-12-20T07:12:15;10.6;64.9
78696;SHT31;68030;51.980;5.646;2023-12-20T07:14:45;10.6;65.1
78696;SHT31;68030;51.980;5.646;2023-12-20T07:17:14;10.6;65.1
78696;SHT31;68030;51.980;5.646;2023-12-20T07:19:42;10.6;65.3
78696;SHT31;68030;51.980;5.646;2023-12-20T07:22:11;10.6;65.1
78696;SHT31;68030;51.980;5.646;2023-12-20T07:24:41;10.6;65.2
78696;SHT31;68030;51.980;5.646;2023-12-20T07:27:10;10.6;65.2
78696;SHT31;68030;51.980;5.646;2023-12-20T07:29:38;10.6;65.3
78696;SHT31;68030;51.980;5.646;2023-12-20T07:32:07;10.6;65.3
78696;SHT31;68030;51.980;5.646;2023-12-20T07:34:38;10.6;65.5
78696;SHT31;68030;51.980;5.646;2023-12-20T07:37:06;10.6;65.5
78696;SHT31;68030;51.980;5.646;2023-12-20T07:39:37;10.6;65.4
78696;SHT31;68030;51.980;5.646;2023-12-20T07:42:07;10.6;65.5
78696;SHT31;68030;51.980;5.646;2023-12-20T07:44:35;10.6;65.5
78696;SHT31;68030;51.980;5.646;2023-12-20T07:47:04;10.7;65.6
78696;SHT31;68030;51.980;5.646;2023-12-20T07:49:35;10.7;65.6
78696;SHT31;68030;51.980;5.646;2023-12-20T07:52:04;10.7;65.4
78696;SHT31;68030;51.980;5.646;2023-12-20T07:54:34;10.7;65.2
78696;SHT31;68030;51.980;5.646;2023-12-20T07:57:03;10.7;65.4
78696;SHT31;68030;51.980;5.646;2023-12-20T07:59:32;10.7;65.1
78696;SHT31;68030;51.980;5.646;2023-12-20T08:02:02;10.7;65.2
78696;SHT31;68030;51.980;5.646;2023-12-20T08:04:31;10.7;65.3
78696;SHT31;68030;51.980;5.646;2023-12-20T08:07:00;10.8;65.1
78696;SHT31;68030;51.980;5.646;2023-12-20T08:09:28;10.8;65.2
78696;SHT31;68030;51.980;5.646;2023-12-20T08:12:00;10.8;65.2
78696;SHT31;68030;51.980;5.646;2023-12-20T08:14:29;10.8;64.8
78696;SHT31;68030;51.980;5.646;2023-12-20T08:16:58;10.8;65.0
78696;SHT31;68030;51.980;5.646;2023-12-20T08:19:28;10.8;64.9
78696;SHT31;68030;51.980;5.646;2023-12-20T08:21:56;10.8;65.0
78696;SHT31;68030;51.980;5.646;2023-12-20T08:24:25;10.8;65.1
78696;SHT31;68030;51.980;5.646;2023-12-20T08:26:53;10.9;65.1
78696;SHT31;68030;51.980;5.646;2023-12-20T08:29:21;10.9;64.9
78696;SHT31;68030;51.980;5.646;2023-12-20T08:31:53;10.9;64.8
78696;SHT31;68030;51.980;5.646;2023-12-20T08:34:22;10.9;64.7
78696;SHT31;68030;51.980;5.646;2023-12-20T08:36:52;10.9;64.9
78696;SHT31;68030;51.980;5.646;2023-12-20T08:39:20;10.9;64.8
78696;SHT31;68030;51.980;5.646;2023-12-20T08:41:49;11.0;64.5
78696;SHT31;68030;51.980;5.646;2023-12-20T08:44:18;11.0;65.0
78696;SHT31;68030;51.980;5.646;2023-12-20T08:46:47;11.0;64.9
78696;SHT31;68030;51.980;5.646;2023-12-20T08:49:16;11.0;64.8
78696;SHT31;68030;51.980;5.646;2023-12-20T08:51:44;11.0;64.8
78696;SHT31;68030;51.980;5.646;2023-12-20T08:54:13;11.0;64.9
78696;SHT31;68030;51.980;5.646;2023-12-20T08:56:43;11.0;65.1
78696;SHT31;68030;51.980;5.646;2023-12-20T08:59:12;11.0;65.3
78696;SHT31;68030;51.980;5.646;2023-12-20T09:01:41;11.0;65.3
78696;SHT31;68030;51.980;5.646;2023-12-20T09:04:09;11.0;65.1
78696;SHT31;68030;51.980;5.646;2023-12-20T09:06:37;11.0;65.5
78696;SHT31;68030;51.980;5.646;2023-12-20T09:09:06;11.0;65.6
78696;SHT31;68030;51.980;5.646;2023-12-20T09:11:36;11.0;65.9
78696;SHT31;68030;51.980;5.646;2023-12-20T09:14:07;11.0;66.1
78696;SHT31;68030;51.980;5.646;2023-12-20T09:16:38;11.0;65.8
78696;SHT31;68030;51.980;5.646;2023-12-20T09:19:06;11.0;66.0
78696;SHT31;68030;51.980;5.646;2023-12-20T09:21:36;11.0;66.3
78696;SHT31;68030;51.980;5.646;2023-12-20T09:24:05;11.0;66.4
78696;SHT31;68030;51.980;5.646;2023-12-20T09:26:35;11.0;66.7
78696;SHT31;68030;51.980;5.646;2023-12-20T09:29:03;11.0;66.9
78696;SHT31;68030;51.980;5.646;2023-12-20T09:31:36;11.0;66.9
78696;SHT31;68030;51.980;5.646;2023-12-20T09:34:05;10.9;66.9
78696;SHT31;68030;51.980;5.646;2023-12-20T09:36:34;10.9;66.8
78696;SHT31;68030;51.980;5.646;2023-12-20T09:39:02;10.9;66.9
78696;SHT31;68030;51.980;5.646;2023-12-20T09:41:40;10.9;66.8
78696;SHT31;68030;51.980;5.646;2023-12-20T09:44:14;10.9;66.9
78696;SHT31;68030;51.980;5.646;2023-12-20T09:46:47;10.9;67.2
78696;SHT31;68030;51.980;5.646;2023-12-20T09:49:18;10.9;67.1
78696;SHT31;68030;51.980;5.646;2023-12-20T09:51:50;10.9;67.2
78696;SHT31;68030;51.980;5.646;2023-12-20T09:54:21;10.9;67.4
78696;SHT31;68030;51.980;5.646;2023-12-20T09:56:50;10.9;67.5
78696;SHT31;68030;51.980;5.646;2023-12-20T09:59:19;10.9;67.6
78696;SHT31;68030;51.980;5.646;2023-12-20T10:01:48;10.9;67.1
78696;SHT31;68030;51.980;5.646;2023-12-20T10:04:17;10.9;67.2
78696;SHT31;68030;51.980;5.646;2023-12-20T10:06:46;11.0;67.3
78696;SHT31;68030;51.980;5.646;2023-12-20T10:09:15;11.0;67.1
78696;SHT31;68030;51.980;5.646;2023-12-20T10:11:43;11.0;67.0
78696;SHT31;68030;51.980;5.646;2023-12-20T10:14:14;11.1;66.9
78696;SHT31;68030;51.980;5.646;2023-12-20T10:16:45;11.1;67.0
78696;SHT31;68030;51.980;5.646;2023-12-20T10:19:16;11.1;67.1
78696;SHT31;68030;51.980;5.646;2023-12-20T10:21:45;11.2;66.7
78696;SHT31;68030;51.980;5.646;2023-12-20T10:24:17;11.2;66.9
78696;SHT31;68030;51.980;5.646;2023-12-20T10:26:45;11.3;66.8
78696;SHT31;68030;51.980;5.646;2023-12-20T10:29:14;11.3;66.8
78696;SHT31;68030;51.980;5.646;2023-12-20T10:31:42;11.4;66.5
78696;SHT31;68030;51.980;5.646;2023-12-20T10:34:11;11.4;66.5
78696;SHT31;68030;51.980;5.646;2023-12-20T10:36:40;11.4;66.3
78696;SHT31;68030;51.980;5.646;2023-12-20T10:39:13;11.5;66.1
78696;SHT31;68030;51.980;5.646;2023-12-20T10:41:44;11.5;65.7
78696;SHT31;68030;51.980;5.646;2023-12-20T10:44:15;11.6;65.7
78696;SHT31;68030;51.980;5.646;2023-12-20T10:46:47;11.6;65.7
78696;SHT31;68030;51.980;5.646;2023-12-20T10:49:18;11.6;65.7
78696;SHT31;68030;51.980;5.646;2023-12-20T10:51:48;11.7;65.8
78696;SHT31;68030;51.980;5.646;2023-12-20T10:54:18;11.7;65.4
78696;SHT31;68030;51.980;5.646;2023-12-20T10:56:52;11.8;65.2
78696;SHT31;68030;51.980;5.646;2023-12-20T10:59:22;11.8;64.9
78696;SHT31;68030;51.980;5.646;2023-12-20T11:01:55;11.9;64.7
78696;SHT31;68030;51.980;5.646;2023-12-20T11:04:31;11.9;64.3
78696;SHT31;68030;51.980;5.646;2023-12-20T11:07:12;11.9;64.1
78696;SHT31;68030;51.980;5.646;2023-12-20T11:09:52;12.0;64.0
78696;SHT31;68030;51.980;5.646;2023-12-20T11:12:35;12.0;63.6
78696;SHT31;68030;51.980;5.646;2023-12-20T11:15:08;12.1;63.7
78696;SHT31;68030;51.980;5.646;2023-12-20T11:17:39;12.1;63.8
78696;SHT31;68030;51.980;5.646;2023-12-20T11:20:12;12.1;64.1
78696;SHT31;68030;51.980;5.646;2023-12-20T11:22:56;12.2;63.8
78696;SHT31;68030;51.980;5.646;2023-12-20T11:25:26;12.2;63.1
78696;SHT31;68030;51.980;5.646;2023-12-20T11:28:10;12.3;62.8
78696;SHT31;68030;51.980;5.646;2023-12-20T11:30:46;12.3;62.9
78696;SHT31;68030;51.980;5.646;2023-12-20T11:33:16;12.3;62.7
78696;SHT31;68030;51.980;5.646;2023-12-20T11:35:45;12.4;62.3
78696;SHT31;68030;51.980;5.646;2023-12-20T11:38:15;12.4;62.0
78696;SHT31;68030;51.980;5.646;2023-12-20T11:40:44;12.4;61.5
78696;SHT31;68030;51.980;5.646;2023-12-20T11:43:31;12.4;61.1
78696;SHT31;68030;51.980;5.646;2023-12-20T11:46:08;12.5;61.8
78696;SHT31;68030;51.980;5.646;2023-12-20T11:48:38;12.5;61.7
78696;SHT31;68030;51.980;5.646;2023-12-20T11:51:11;12.5;61.0
78696;SHT31;68030;51.980;5.646;2023-12-20T11:53:41;12.5;60.3
78696;SHT31;68030;51.980;5.646;2023-12-20T11:56:11;12.6;60.7
78696;SHT31;68030;51.980;5.646;2023-12-20T11:58:39;12.6;60.3
78696;SHT31;68030;51.980;5.646;2023-12-20T12:01:08;12.6;60.0
78696;SHT31;68030;51.980;5.646;2023-12-20T12:03:37;12.6;60.2
78696;SHT31;68030;51.980;5.646;2023-12-20T12:06:06;12.7;60.6
78696;SHT31;68030;51.980;5.646;2023-12-20T12:08:35;12.7;60.3
78696;SHT31;68030;51.980;5.646;2023-12-20T12:11:04;12.7;61.0
78696;SHT31;68030;51.980;5.646;2023-12-20T12:13:33;12.7;61.5
78696;SHT31;68030;51.980;5.646;2023-12-20T12:16:02;12.8;61.2
78696;SHT31;68030;51.980;5.646;2023-12-20T12:18:31;12.8;61.0
78696;SHT31;68030;51.980;5.646;2023-12-20T12:21:03;12.8;60.9
78696;SHT31;68030;51.980;5.646;2023-12-20T12:23:31;12.9;60.8
78696;SHT31;68030;51.980;5.646;2023-12-20T12:26:03;12.9;61.0
78696;SHT31;68030;51.980;5.646;2023-12-20T12:28:34;12.9;61.1
78696;SHT31;68030;51.980;5.646;2023-12-20T12:31:03;12.9;61.0
78696;SHT31;68030;51.980;5.646;2023-12-20T12:33:33;12.9;61.2
78696;SHT31;68030;51.980;5.646;2023-12-20T12:36:02;12.9;60.8
78696;SHT31;68030;51.980;5.646;2023-12-20T12:38:33;12.9;61.2
78696;SHT31;68030;51.980;5.646;2023-12-20T12:41:02;12.9;61.3
78696;SHT31;68030;51.980;5.646;2023-12-20T12:43:32;12.9;61.6
78696;SHT31;68030;51.980;5.646;2023-12-20T12:46:00;12.8;61.8
78696;SHT31;68030;51.980;5.646;2023-12-20T12:48:29;12.8;61.3
78696;SHT31;68030;51.980;5.646;2023-12-20T12:50:59;12.8;61.6
78696;SHT31;68030;51.980;5.646;2023-12-20T12:53:27;12.8;61.9
78696;SHT31;68030;51.980;5.646;2023-12-20T12:55:55;12.8;62.1
78696;SHT31;68030;51.980;5.646;2023-12-20T12:58:24;12.8;61.8
78696;SHT31;68030;51.980;5.646;2023-12-20T13:00:53;12.8;61.5
78696;SHT31;68030;51.980;5.646;2023-12-20T13:03:22;12.8;61.0
78696;SHT31;68030;51.980;5.646;2023-12-20T13:05:50;12.8;61.6
78696;SHT31;68030;51.980;5.646;2023-12-20T13:08:21;12.8;61.7
78696;SHT31;68030;51.980;5.646;2023-12-20T13:10:49;12.8;61.5
78696;SHT31;68030;51.980;5.646;2023-12-20T13:13:18;12.9;61.6
78696;SHT31;68030;51.980;5.646;2023-12-20T13:15:47;12.9;61.5
78696;SHT31;68030;51.980;5.646;2023-12-20T13:18:19;12.9;61.5
78696;SHT31;68030;51.980;5.646;2023-12-20T13:20:48;12.9;61.8
78696;SHT31;68030;51.980;5.646;2023-12-20T13:23:16;12.9;61.4
78696;SHT31;68030;51.980;5.646;2023-12-20T13:25:46;12.9;61.2
78696;SHT31;68030;51.980;5.646;2023-12-20T13:28:15;12.9;60.9
78696;SHT31;68030;51.980;5.646;2023-12-20T13:30:44;12.9;61.3
78696;SHT31;68030;51.980;5.646;2023-12-20T13:33:12;12.9;61.2
78696;SHT31;68030;51.980;5.646;2023-12-20T13:35:41;12.9;61.4
78696;SHT31;68030;51.980;5.646;2023-12-20T13:38:10;12.9;61.4
78696;SHT31;68030;51.980;5.646;2023-12-20T13:40:41;12.9;61.0
78696;SHT31;68030;51.980;5.646;2023-12-20T13:43:09;12.9;60.9
78696;SHT31;68030;51.980;5.646;2023-12-20T13:45:39;12.9;60.5
78696;SHT31;68030;51.980;5.646;2023-12-20T13:48:08;12.9;60.5
78696;SHT31;68030;51.980;5.646;2023-12-20T13:50:37;12.8;60.9
78696;SHT31;68030;51.980;5.646;2023-12-20T13:53:05;12.8;61.0
78696;SHT31;68030;51.980;5.646;2023-12-20T13:55:34;12.8;60.9
78696;SHT31;68030;51.980;5.646;2023-12-20T13:58:02;12.8;60.6
78696;SHT31;68030;51.980;5.646;2023-12-20T14:00:31;12.8;60.6
78696;SHT31;68030;51.980;5.646;2023-12-20T14:02:59;12.8;60.3
78696;SHT31;68030;51.980;5.646;2023-12-20T14:05:28;12.8;59.8
78696;SHT31;68030;51.980;5.646;2023-12-20T14:07:57;12.8;60.5
78696;SHT31;68030;51.980;5.646;2023-12-20T14:10:27;12.8;60.2
78696;SHT31;68030;51.980;5.646;2023-12-20T14:12:56;12.8;60.3
78696;SHT31;68030;51.980;5.646;2023-12-20T14:15:26;12.8;60.4
78696;SHT31;68030;51.980;5.646;2023-12-20T14:17:57;12.8;60.7
78696;SHT31;68030;51.980;5.646;2023-12-20T14:20:25;12.8;60.6
78696;SHT31;68030;51.980;5.646;2023-12-20T14:22:57;12.8;60.8
78696;SHT31;68030;51.980;5.646;2023-12-20T14:25:26;12.8;60.6
78696;SHT31;68030;51.980;5.646;2023-12-20T14:27:56;12.8;60.4
78696;SHT31;68030;51.980;5.646;2023-12-20T14:30:26;12.8;60.4
78696;SHT31;68030;51.980;5.646;2023-12-20T14:32:54;12.8;60.7
78696;SHT31;68030;51.980;5.646;2023-12-20T14:35:23;12.8;60.6
78696;SHT31;68030;51.980;5.646;2023-12-20T14:37:52;12.8;60.7
78696;SHT31;68030;51.980;5.646;2023-12-20T14:40:21;12.8;60.8
78696;SHT31;68030;51.980;5.646;2023-12-20T14:42:49;12.8;60.8
78696;SHT31;68030;51.980;5.646;2023-12-20T14:45:18;12.7;61.1
78696;SHT31;68030;51.980;5.646;2023-12-20T14:47:47;12.7;61.2
78696;SHT31;68030;51.980;5.646;2023-12-20T14:50:16;12.7;61.4
78696;SHT31;68030;51.980;5.646;2023-12-20T14:52:45;12.7;61.5
78696;SHT31;68030;51.980;5.646;2023-12-20T14:55:15;12.7;61.4
78696;SHT31;68030;51.980;5.646;2023-12-20T14:57:44;12.7;61.4
78696;SHT31;68030;51.980;5.646;2023-12-20T15:00:14;12.7;61.3
78696;SHT31;68030;51.980;5.646;2023-12-20T15:02:45;12.7;61.4
78696;SHT31;68030;51.980;5.646;2023-12-20T15:05:14;12.7;61.6
78696;SHT31;68030;51.980;5.646;2023-12-20T15:07:44;12.7;61.4
78696;SHT31;68030;51.980;5.646;2023-12-20T15:10:13;12.6;61.8
78696;SHT31;68030;51.980;5.646;2023-12-20T15:12:43;12.6;61.8
78696;SHT31;68030;51.980;5.646;2023-12-20T15:15:12;12.6;61.9
78696;SHT31;68030;51.980;5.646;2023-12-20T15:17:41;12.6;62.4
78696;SHT31;68030;51.980;5.646;2023-12-20T15:20:10;12.6;62.4
78696;SHT31;68030;51.980;5.646;2023-12-20T15:22:40;12.6;62.6
78696;SHT31;68030;51.980;5.646;2023-12-20T15:25:12;12.5;62.6
78696;SHT31;68030;51.980;5.646;2023-12-20T15:27:45;12.5;62.8
78696;SHT31;68030;51.980;5.646;2023-12-20T15:30:15;12.5;62.7
78696;SHT31;68030;51.980;5.646;2023-12-20T15:32:44;12.5;62.9
78696;SHT31;68030;51.980;5.646;2023-12-20T15:35:13;12.5;63.2
78696;SHT31;68030;51.980;5.646;2023-12-20T15:37:41;12.4;63.5
78696;SHT31;68030;51.980;5.646;2023-12-20T15:40:11;12.4;63.8
78696;SHT31;68030;51.980;5.646;2023-12-20T15:42:40;12.4;64.1
78696;SHT31;68030;51.980;5.646;2023-12-20T15:45:10;12.4;64.5
78696;SHT31;68030;51.980;5.646;2023-12-20T15:47:41;12.4;64.5
78696;SHT31;68030;51.980;5.646;2023-12-20T15:50:11;12.4;64.6
78696;SHT31;68030;51.980;5.646;2023-12-20T15:52:41;12.3;65.0
78696;SHT31;68030;51.980;5.646;2023-12-20T15:55:10;12.3;65.4
78696;SHT31;68030;51.980;5.646;2023-12-20T15:57:38;12.3;65.4
78696;SHT31;68030;51.980;5.646;2023-12-20T16:00:09;12.2;65.7
78696;SHT31;68030;51.980;5.646;2023-12-20T16:02:39;12.2;65.8
78696;SHT31;68030;51.980;5.646;2023-12-20T16:05:10;12.2;66.0
78696;SHT31;68030;51.980;5.646;2023-12-20T16:07:39;12.2;66.1
78696;SHT31;68030;51.980;5.646;2023-12-20T16:10:11;12.1;66.2
78696;SHT31;68030;51.980;5.646;2023-12-20T16:12:40;12.1;66.5
78696;SHT31;68030;51.980;5.646;2023-12-20T16:15:09;12.1;66.4
78696;SHT31;68030;51.980;5.646;2023-12-20T16:17:38;12.1;66.6
78696;SHT31;68030;51.980;5.646;2023-12-20T16:20:08;12.0;66.8